Time,TemperatureF,DewpointF,PressureIn,WindDirection,WindDirectionDegrees,WindSpeedMPH,WindSpeedGustMPH,Humidity,HourlyPrecipIn,Conditions,Clouds,dailyrainin,SoftwareType,DateUTC
2013-06-29 00:00:00,77.4,73.2,29.85,SW,221,3.2,5.8,87,0.00,,---,0.00,VWS V14.01,2013-06-29 04:00:00,
2013-06-29 00:01:00,75.3,75.3,29.89,South,181,3.4,4.0,100,0.00,,---,0.00,VWS V14.01,2013-06-29 04:01:00,
2013-06-29 00:02:00,78.3,74.1,29.85,SSW,200,5.7,8.3,87,0.00,,---,0.00,VWS V14.01,2013-06-29 04:02:00,
2013-06-29 00:03:00,77.3,73.1,29.86,South,176,4.5,8.3,87,0.00,,---,0.00,VWS V14.01,2013-06-29 04:03:00,
2013-06-29 00:06:00,74.4,74.4,29.89,SSE,163,4.5,5.8,100,0.00,,---,0.00,VWS V14.01,2013-06-29 04:06:00,
2013-06-29 00:11:00,74.8,74.8,29.89,SSW,195,4.2,6.3,100,0.00,,---,0.00,VWS V14.01,2013-06-29 04:11:00,
2013-06-29 00:16:00,75.3,75.3,29.89,South,191,4.7,5.2,100,0.00,,---,0.00,VWS V14.01,2013-06-29 04:16:00,
2013-06-29 00:21:00,75.0,75.0,29.89,South,174,2.9,6.0,100,0.00,,---,0.00,VWS V14.01,2013-06-29 04:21:00,
2013-06-29 00:26:00,75.3,75.3,29.89,SSW,205,3.3,4.3,100,0.00,,---,0.00,VWS V14.01,2013-06-29 04:26:00,
2013-06-29 00:31:00,75.4,75.4,29.88,SSW,197,3.7,4.5,100,0.00,,---,0.00,VWS V14.01,2013-06-29 04:31:00,
2013-06-29 00:36:00,75.4,75.4,29.88,SSW,198,2.1,2.5,100,0.00,,---,0.00,VWS V14.01,2013-06-29 04:36:00,
2013-06-29 00:41:00,75.6,75.6,29.88,South,190,3.2,3.4,100,0.00,,---,0.00,VWS V14.01,2013-06-29 04:41:00,
2013-06-29 00:46:00,75.7,75.7,29.88,SSE,163,2.1,2.1,100,0.00,,---,0.00,VWS V14.01,2013-06-29 04:46:00,
2013-06-29 00:51:00,75.6,75.6,29.88,SSE,149,0.0,0.0,100,0.00,,---,0.00,VWS V14.01,2013-06-29 04:51:00,
2013-06-29 00:56:00,74.8,74.8,29.87,SSE,159,2.0,2.9,100,0.00,,---,0.00,VWS V14.01,2013-06-29 04:56:00,
2013-06-29 01:01:00,75.5,75.5,29.87,SSW,208,4.1,4.6,100,0.00,,---,0.00,VWS V14.01,2013-06-29 05:01:00,
2013-06-29 01:06:00,74.7,74.7,29.87,SSE,150,2.0,2.7,100,0.00,,---,0.00,VWS V14.01,2013-06-29 05:06:00,
2013-06-29 01:11:00,75.4,75.4,29.87,South,188,3.2,5.8,100,0.00,,---,0.00,VWS V14.01,2013-06-29 05:11:00,
2013-06-29 01:16:00,75.7,75.7,29.87,South,181,0.7,3.2,100,0.00,,---,0.00,VWS V14.01,2013-06-29 05:16:00,
2013-06-29 01:21:00,74.8,74.8,29.87,SSW,207,4.8,5.3,100,0.00,,---,0.00,VWS V14.01,2013-06-29 05:21:00,
2013-06-29 01:26:00,75.7,75.7,29.87,SSW,201,0.9,2.4,100,0.00,,---,0.00,VWS V14.01,2013-06-29 05:26:00,
2013-06-29 01:31:00,75.9,75.9,29.87,SSW,205,4.1,4.7,100,0.00,,---,0.00,VWS V14.01,2013-06-29 05:31:00,
2013-06-29 01:36:00,76.0,76.0,29.86,SSW,202,5.2,6.5,100,0.00,,---,0.00,VWS V14.01,2013-06-29 05:36:00,
2013-06-29 01:41:00,75.9,75.9,29.86,South,187,4.3,5.1,100,0.00,,---,0.00,VWS V14.01,2013-06-29 05:41:00,
2013-06-29 01:46:00,75.9,75.9,29.86,SW,224,2.9,2.9,100,0.00,,---,0.00,VWS V14.01,2013-06-29 05:46:00,
2013-06-29 01:51:00,75.7,75.7,29.86,South,191,3.0,5.7,100,0.00,,---,0.00,VWS V14.01,2013-06-29 05:51:00,
2013-06-29 01:56:00,76.1,76.1,29.86,South,177,3.2,3.8,100,0.00,,---,0.00,VWS V14.01,2013-06-29 05:56:00,
2013-06-29 02:01:00,75.7,75.7,29.86,South,181,3.1,3.1,100,0.00,,---,0.00,VWS V14.01,2013-06-29 06:01:00,
2013-06-29 02:06:00,75.8,75.8,29.85,South,186,0.9,2.9,100,0.00,,---,0.00,VWS V14.01,2013-06-29 06:06:00,
2013-06-29 02:11:00,75.9,75.9,29.84,South,183,4.5,5.5,100,0.00,,---,0.00,VWS V14.01,2013-06-29 06:11:00,
2013-06-29 02:16:00,75.2,75.2,29.84,South,179,3.0,3.7,100,0.00,,---,0.00,VWS V14.01,2013-06-29 06:16:00,
2013-06-29 02:21:00,75.4,75.4,29.84,SSE,149,1.1,2.2,100,0.00,,---,0.00,VWS V14.01,2013-06-29 06:21:00,
2013-06-29 02:26:00,76.4,76.4,29.84,SSW,197,2.4,6.3,100,0.00,,---,0.00,VWS V14.01,2013-06-29 06:26:00,
2013-06-29 02:31:00,76.4,76.4,29.84,South,180,5.0,5.2,100,0.00,,---,0.00,VWS V14.01,2013-06-29 06:31:00,
2013-06-29 02:36:00,76.2,76.2,29.84,South,188,3.0,3.5,100,0.00,,---,0.00,VWS V14.01,2013-06-29 06:36:00,
2013-06-29 02:41:00,76.4,76.4,29.84,South,179,3.9,4.2,100,0.00,,---,0.00,VWS V14.01,2013-06-29 06:41:00,
2013-06-29 02:46:00,75.7,75.7,29.84,SW,222,2.4,3.4,100,0.00,,---,0.00,VWS V14.01,2013-06-29 06:46:00,
2013-06-29 02:51:00,76.4,76.4,29.84,SW,215,1.7,3.5,100,0.00,,---,0.00,VWS V14.01,2013-06-29 06:51:00,
2013-06-29 02:56:00,76.1,76.1,29.84,South,177,0.6,1.9,100,0.00,,---,0.00,VWS V14.01,2013-06-29 06:56:00,
2013-06-29 03:01:00,76.7,76.7,29.84,SSW,195,1.1,2.5,100,0.00,,---,0.00,VWS V14.01,2013-06-29 07:01:00,
2013-06-29 03:06:00,76.7,76.7,29.84,South,188,2.1,4.1,100,0.00,,---,0.00,VWS V14.01,2013-06-29 07:06:00,
2013-06-29 03:11:00,76.7,76.6,29.84,South,181,0.6,1.8,100,0.00,,---,0.00,VWS V14.01,2013-06-29 07:11:00,
2013-06-29 03:16:00,76.9,76.8,29.84,South,186,2.2,2.6,100,0.00,,---,0.00,VWS V14.01,2013-06-29 07:16:00,
2013-06-29 03:21:00,76.6,76.6,29.84,SW,218,1.6,1.9,100,0.00,,---,0.00,VWS V14.01,2013-06-29 07:21:00,
2013-06-29 03:26:00,76.4,76.3,29.84,SW,233,5.9,7.6,100,0.00,,---,0.00,VWS V14.01,2013-06-29 07:26:00,
2013-06-29 03:31:00,76.7,76.6,29.85,SW,225,2.6,5.7,100,0.00,,---,0.00,VWS V14.01,2013-06-29 07:31:00,
2013-06-29 03:36:00,76.2,76.0,29.84,SSE,167,3.0,6.9,99,0.00,,---,0.00,VWS V14.01,2013-06-29 07:36:00,
2013-06-29 03:41:00,76.0,75.7,29.85,SSW,212,2.9,7.1,99,0.00,,---,0.00,VWS V14.01,2013-06-29 07:41:00,
2013-06-29 03:46:00,76.9,76.6,29.85,SW,222,2.7,4.5,99,0.00,,---,0.00,VWS V14.01,2013-06-29 07:46:00,
2013-06-29 03:51:00,77.2,76.8,29.85,South,187,2.2,3.5,99,0.00,,---,0.00,VWS V14.01,2013-06-29 07:51:00,
2013-06-29 03:56:00,77.2,76.8,29.85,SSW,197,4.3,4.3,99,0.00,,---,0.00,VWS V14.01,2013-06-29 07:56:00,
2013-06-29 04:01:00,76.6,76.2,29.85,South,184,1.4,6.2,99,0.00,,---,0.00,VWS V14.01,2013-06-29 08:01:00,
2013-06-29 04:06:00,77.3,76.9,29.85,SSW,202,4.2,5.6,99,0.00,,---,0.00,VWS V14.01,2013-06-29 08:06:00,
2013-06-29 04:11:00,77.4,77.0,29.85,SW,214,2.2,3.4,99,0.00,,---,0.00,VWS V14.01,2013-06-29 08:11:00,
2013-06-29 04:16:00,77.5,77.1,29.85,SSW,197,2.4,4.1,99,0.00,,---,0.00,VWS V14.01,2013-06-29 08:16:00,
2013-06-29 04:21:00,77.7,77.3,29.85,SW,235,4.4,5.9,99,0.00,,---,0.00,VWS V14.01,2013-06-29 08:21:00,
2013-06-29 04:26:00,76.3,75.9,29.85,SW,236,2.6,4.5,99,0.00,,---,0.00,VWS V14.01,2013-06-29 08:26:00,
2013-06-29 04:31:00,77.4,77.0,29.85,South,183,5.8,7.0,99,0.00,,---,0.00,VWS V14.01,2013-06-29 08:31:00,
2013-06-29 04:36:00,77.7,77.2,29.85,SW,233,3.7,4.3,98,0.00,,---,0.00,VWS V14.01,2013-06-29 08:36:00,
2013-06-29 04:41:00,77.9,77.5,29.85,SW,221,2.1,3.8,99,0.00,,---,0.00,VWS V14.01,2013-06-29 08:41:00,
2013-06-29 04:46:00,77.3,76.9,29.85,SSW,212,2.5,3.2,99,0.00,,---,0.00,VWS V14.01,2013-06-29 08:46:00,
2013-06-29 04:51:00,77.3,77.0,29.85,SSW,208,1.7,4.1,99,0.00,,---,0.00,VWS V14.01,2013-06-29 08:51:00,
2013-06-29 04:56:00,76.8,76.6,29.85,SW,214,6.0,6.9,99,0.00,,---,0.00,VWS V14.01,2013-06-29 08:56:00,
2013-06-29 05:01:00,77.7,77.5,29.85,SSW,197,3.4,4.7,99,0.00,,---,0.00,VWS V14.01,2013-06-29 09:01:00,
2013-06-29 05:06:00,76.9,76.7,29.85,SSW,205,0.9,1.8,99,0.00,,---,0.00,VWS V14.01,2013-06-29 09:06:00,
2013-06-29 05:11:00,77.3,77.1,29.85,SSW,212,1.4,3.5,99,0.00,,---,0.00,VWS V14.01,2013-06-29 09:11:00,
2013-06-29 05:16:00,77.4,77.2,29.85,SW,224,2.3,4.5,99,0.00,,---,0.00,VWS V14.01,2013-06-29 09:16:00,
2013-06-29 05:21:00,77.7,77.5,29.85,South,183,0.0,0.0,99,0.00,,---,0.00,VWS V14.01,2013-06-29 09:21:00,
2013-06-29 05:26:00,77.7,77.5,29.85,SSW,197,0.4,1.6,99,0.00,,---,0.00,VWS V14.01,2013-06-29 09:26:00,
2013-06-29 05:31:00,77.0,76.8,29.86,South,188,3.5,3.6,100,0.00,,---,0.00,VWS V14.01,2013-06-29 09:31:00,
2013-06-29 05:36:00,77.3,77.2,29.86,South,187,4.8,6.0,100,0.00,,---,0.00,VWS V14.01,2013-06-29 09:36:00,
2013-06-29 05:41:00,77.5,77.4,29.86,South,172,0.0,1.6,100,0.00,,---,0.00,VWS V14.01,2013-06-29 09:41:00,
2013-06-29 05:46:00,76.8,76.7,29.86,SSE,165,1.2,6.5,100,0.00,,---,0.00,VWS V14.01,2013-06-29 09:46:00,
2013-06-29 05:51:00,76.4,76.3,29.86,South,188,0.6,2.0,100,0.00,,---,0.00,VWS V14.01,2013-06-29 09:51:00,
2013-06-29 05:56:00,76.7,76.6,29.87,South,188,4.9,5.9,100,0.00,,---,0.00,VWS V14.01,2013-06-29 09:56:00,
2013-06-29 06:01:00,77.3,77.2,29.87,SW,225,4.5,4.5,100,0.00,,---,0.00,VWS V14.01,2013-06-29 10:01:00,
2013-06-29 06:06:00,76.8,76.7,29.86,SE,139,0.0,0.7,100,0.00,,---,0.00,VWS V14.01,2013-06-29 10:06:00,
2013-06-29 06:11:00,77.3,77.2,29.86,South,184,1.1,4.7,100,0.00,,---,0.00,VWS V14.01,2013-06-29 10:11:00,
2013-06-29 06:16:00,76.2,76.0,29.86,SSW,210,3.0,4.2,99,0.00,,---,0.00,VWS V14.01,2013-06-29 10:16:00,
2013-06-29 06:21:00,76.2,76.1,29.86,SW,231,3.5,5.9,100,0.00,,---,0.00,VWS V14.01,2013-06-29 10:21:00,
2013-06-29 06:26:00,77.2,76.9,29.86,South,186,1.6,5.3,99,0.00,,---,0.00,VWS V14.01,2013-06-29 10:26:00,
2013-06-29 06:31:00,76.3,76.0,29.86,SSE,158,2.1,3.5,99,0.00,,---,0.00,VWS V14.01,2013-06-29 10:31:00,
2013-06-29 06:36:00,77.4,77.1,29.87,SW,233,1.9,1.9,99,0.00,,---,0.00,VWS V14.01,2013-06-29 10:36:00,
2013-06-29 06:40:00,77.3,77.1,29.87,South,183,1.1,1.7,99,0.00,,---,0.00,VWS V14.01,2013-06-29 10:40:00,
2013-06-29 06:45:00,77.3,77.1,29.87,South,183,1.6,1.6,99,0.00,,---,0.00,VWS V14.01,2013-06-29 10:45:00,
2013-06-29 06:50:00,77.2,77.0,29.87,South,187,1.7,2.4,99,0.00,,---,0.00,VWS V14.01,2013-06-29 10:50:00,
2013-06-29 06:55:00,77.4,77.2,29.87,South,191,1.1,1.1,99,0.00,,---,0.00,VWS V14.01,2013-06-29 10:55:00,
2013-06-29 07:00:00,77.2,77.1,29.87,South,191,1.0,2.2,100,0.00,,---,0.00,VWS V14.01,2013-06-29 11:00:00,
2013-06-29 07:05:00,76.8,76.6,29.87,SSW,198,1.5,2.3,99,0.00,,---,0.00,VWS V14.01,2013-06-29 11:05:00,
2013-06-29 07:10:00,76.1,75.9,29.87,South,172,3.8,5.1,99,0.00,,---,0.00,VWS V14.01,2013-06-29 11:10:00,
2013-06-29 07:15:00,77.3,77.1,29.87,South,188,0.9,2.2,99,0.00,,---,0.00,VWS V14.01,2013-06-29 11:15:00,
2013-06-29 07:20:00,77.3,76.9,29.87,South,176,6.8,8.6,99,0.00,,---,0.00,VWS V14.01,2013-06-29 11:20:00,
2013-06-29 07:25:00,77.2,76.8,29.87,South,169,4.6,6.5,99,0.00,,---,0.00,VWS V14.01,2013-06-29 11:25:00,
2013-06-29 07:30:00,77.3,76.9,29.87,SSE,165,3.5,4.5,99,0.00,,---,0.00,VWS V14.01,2013-06-29 11:30:00,
2013-06-29 07:35:00,76.9,76.6,29.87,South,172,4.5,4.5,99,0.00,,---,0.00,VWS V14.01,2013-06-29 11:35:00,
2013-06-29 07:40:00,76.6,76.2,29.87,South,190,4.4,4.4,99,0.00,,---,0.00,VWS V14.01,2013-06-29 11:40:00,
2013-06-29 07:45:00,77.4,77.0,29.88,South,173,4.8,7.3,99,0.00,,---,0.00,VWS V14.01,2013-06-29 11:45:00,
2013-06-29 07:50:00,77.1,76.7,29.88,South,190,3.6,4.2,99,0.00,,---,0.00,VWS V14.01,2013-06-29 11:50:00,
2013-06-29 07:55:00,77.7,77.3,29.87,SSW,205,4.9,4.9,99,0.00,,---,0.00,VWS V14.01,2013-06-29 11:55:00,
2013-06-29 08:00:00,77.8,77.4,29.88,South,186,3.7,3.7,99,0.00,,---,0.00,VWS V14.01,2013-06-29 12:00:00,
2013-06-29 08:05:00,76.9,76.4,29.88,SSW,194,5.8,5.8,98,0.00,,---,0.00,VWS V14.01,2013-06-29 12:05:00,
2013-06-29 08:10:00,78.1,77.6,29.88,SSE,152,1.8,2.0,98,0.00,,---,0.00,VWS V14.01,2013-06-29 12:10:00,
2013-06-29 08:15:00,78.4,77.8,29.88,SSE,162,4.2,4.3,98,0.00,,---,0.00,VWS V14.01,2013-06-29 12:15:00,
2013-06-29 08:20:00,78.3,77.6,29.88,SW,228,2.5,2.6,98,0.00,,---,0.00,VWS V14.01,2013-06-29 12:20:00,
2013-06-29 08:25:00,78.0,77.3,29.88,South,184,3.6,3.6,98,0.00,,---,0.00,VWS V14.01,2013-06-29 12:25:00,
2013-06-29 08:30:00,78.9,78.1,29.88,SSW,207,2.8,6.7,97,0.00,,---,0.00,VWS V14.01,2013-06-29 12:30:00,
2013-06-29 08:35:00,78.8,77.9,29.88,South,173,5.0,5.0,97,0.00,,---,0.00,VWS V14.01,2013-06-29 12:35:00,
2013-06-29 08:40:00,79.4,78.3,29.88,SSW,208,3.1,3.5,96,0.00,,---,0.00,VWS V14.01,2013-06-29 12:40:00,
2013-06-29 08:45:00,79.3,78.1,29.87,SW,221,5.4,5.4,96,0.00,,---,0.00,VWS V14.01,2013-06-29 12:45:00,
2013-06-29 08:50:00,79.4,78.0,29.87,SW,214,9.8,9.8,95,0.00,,---,0.00,VWS V14.01,2013-06-29 12:50:00,
2013-06-29 08:55:00,80.0,78.3,29.87,South,190,7.2,9.1,95,0.00,,---,0.00,VWS V14.01,2013-06-29 12:55:00,
2013-06-29 09:00:00,80.2,78.4,29.87,SSW,205,3.5,5.5,94,0.00,,---,0.00,VWS V14.01,2013-06-29 13:00:00,
2013-06-29 09:05:00,79.8,77.7,29.87,SW,236,4.2,8.9,93,0.00,,---,0.00,VWS V14.01,2013-06-29 13:05:00,
2013-06-29 09:10:00,80.3,77.8,29.87,South,174,9.5,10.1,92,0.00,,---,0.00,VWS V14.01,2013-06-29 13:10:00,
2013-06-29 09:15:00,80.6,77.7,29.87,SW,217,3.2,8.8,91,0.00,,---,0.00,VWS V14.01,2013-06-29 13:15:00,
2013-06-29 09:20:00,80.1,76.9,29.86,SW,224,2.7,9.9,90,0.00,,---,0.00,VWS V14.01,2013-06-29 13:20:00,
2013-06-29 09:25:00,81.3,77.9,29.87,SSE,158,6.2,10.3,89,0.00,,---,0.00,VWS V14.01,2013-06-29 13:25:00,
2013-06-29 09:30:00,80.9,77.2,29.86,South,180,0.4,5.5,89,0.00,,---,0.00,VWS V14.01,2013-06-29 13:30:00,
2013-06-29 09:35:00,81.3,77.1,29.87,SSW,198,7.6,12.6,87,0.00,,---,0.00,VWS V14.01,2013-06-29 13:35:00,
2013-06-29 09:40:00,81.6,77.3,29.86,SW,225,6.2,6.2,87,0.00,,---,0.00,VWS V14.01,2013-06-29 13:40:00,
2013-06-29 09:45:00,81.4,76.6,29.87,SW,217,5.3,14.4,85,0.00,,---,0.00,VWS V14.01,2013-06-29 13:45:00,
2013-06-29 09:50:00,81.9,76.9,29.86,South,176,3.6,8.2,85,0.00,,---,0.00,VWS V14.01,2013-06-29 13:50:00,
2013-06-29 09:55:00,81.8,76.7,29.87,South,180,4.6,10.6,84,0.00,,---,0.00,VWS V14.01,2013-06-29 13:55:00,
2013-06-29 10:00:00,82.4,76.6,29.87,WSW,252,6.3,10.8,83,0.00,,---,0.00,VWS V14.01,2013-06-29 14:00:00,
2013-06-29 10:05:00,82.9,76.7,29.87,SSW,208,11.4,12.9,82,0.00,,---,0.00,VWS V14.01,2013-06-29 14:05:00,
2013-06-29 10:10:00,83.1,76.5,29.87,SSW,208,7.4,12.2,81,0.00,,---,0.00,VWS V14.01,2013-06-29 14:10:00,
2013-06-29 10:15:00,83.1,76.2,29.87,South,186,8.0,14.2,80,0.00,,---,0.00,VWS V14.01,2013-06-29 14:15:00,
2013-06-29 10:20:00,82.6,75.3,29.87,SSW,205,6.5,10.3,79,0.00,,---,0.00,VWS V14.01,2013-06-29 14:20:00,
2013-06-29 10:25:00,83.6,76.1,29.87,WSW,249,9.3,13.0,78,0.00,,---,0.00,VWS V14.01,2013-06-29 14:25:00,
2013-06-29 10:30:00,83.4,75.6,29.87,SSW,204,9.6,12.2,77,0.00,,---,0.00,VWS V14.01,2013-06-29 14:30:00,
2013-06-29 10:35:00,84.3,75.9,29.87,SW,226,6.2,12.4,76,0.00,,---,0.00,VWS V14.01,2013-06-29 14:35:00,
2013-06-29 10:40:00,83.8,75.6,29.87,SSW,202,7.7,9.7,76,0.00,,---,0.00,VWS V14.01,2013-06-29 14:40:00,
2013-06-29 10:45:00,84.3,75.5,29.87,SW,219,5.0,10.0,75,0.00,,---,0.00,VWS V14.01,2013-06-29 14:45:00,
2013-06-29 10:50:00,84.0,74.6,29.87,West,273,4.3,8.2,74,0.00,,---,0.00,VWS V14.01,2013-06-29 14:50:00,
2013-06-29 10:55:00,84.0,74.8,29.86,SW,236,4.8,8.1,74,0.00,,---,0.00,VWS V14.01,2013-06-29 14:55:00,
2013-06-29 11:00:00,84.1,74.7,29.86,SW,224,8.8,10.7,74,0.00,,---,0.00,VWS V14.01,2013-06-29 15:00:00,
2013-06-29 11:05:00,84.0,74.3,29.86,South,184,5.2,10.7,73,0.00,,---,0.00,VWS V14.01,2013-06-29 15:05:00,
2013-06-29 11:10:00,85.0,75.1,29.86,WSW,257,4.3,11.1,72,0.00,,---,0.00,VWS V14.01,2013-06-29 15:10:00,
2013-06-29 11:15:00,85.0,74.3,29.87,WSW,245,8.5,14.4,70,0.00,,---,0.00,VWS V14.01,2013-06-29 15:15:00,
2013-06-29 11:20:00,84.4,72.4,29.86,SW,225,7.8,11.7,67,0.00,,---,0.00,VWS V14.01,2013-06-29 15:20:00,
2013-06-29 11:25:00,85.6,72.1,29.87,West,270,8.9,23.4,64,0.00,,---,0.00,VWS V14.01,2013-06-29 15:25:00,
2013-06-29 11:30:00,84.4,68.6,29.87,SW,231,8.5,18.2,59,0.00,,---,0.00,VWS V14.01,2013-06-29 15:30:00,
2013-06-29 11:35:00,82.5,70.2,29.87,WSW,257,6.7,8.5,66,0.01,,---,0.01,VWS V14.01,2013-06-29 15:35:00,
2013-06-29 11:40:00,80.8,71.0,29.87,WNW,287,5.5,7.9,72,0.01,,---,0.01,VWS V14.01,2013-06-29 15:40:00,
2013-06-29 11:45:00,80.5,72.3,29.88,West,270,7.6,9.4,76,0.01,,---,0.01,VWS V14.01,2013-06-29 15:45:00,
2013-06-29 11:50:00,80.0,70.9,29.87,WSW,250,7.3,11.8,74,0.01,,---,0.01,VWS V14.01,2013-06-29 15:50:00,
2013-06-29 11:55:00,81.4,71.1,29.88,WSW,248,13.6,15.3,71,0.01,,---,0.01,VWS V14.01,2013-06-29 15:55:00,
2013-06-29 12:00:00,82.3,70.7,29.88,WSW,255,14.0,14.5,68,0.01,,---,0.01,VWS V14.01,2013-06-29 16:00:00,
2013-06-29 12:05:00,83.1,70.8,29.87,WSW,242,8.3,13.9,66,0.01,,---,0.01,VWS V14.01,2013-06-29 16:05:00,
2013-06-29 12:10:00,83.8,71.0,29.87,West,274,6.6,7.2,65,0.01,,---,0.01,VWS V14.01,2013-06-29 16:10:00,
2013-06-29 12:15:00,85.0,71.0,29.87,SW,218,10.6,11.2,63,0.01,,---,0.01,VWS V14.01,2013-06-29 16:15:00,
2013-06-29 12:20:00,84.3,69.9,29.87,SW,229,6.6,8.9,62,0.01,,---,0.01,VWS V14.01,2013-06-29 16:20:00,
2013-06-29 12:25:00,84.0,69.9,29.87,WNW,298,4.5,9.9,63,0.01,,---,0.01,VWS V14.01,2013-06-29 16:25:00,
2013-06-29 12:30:00,84.7,70.6,29.87,WSW,248,3.7,9.9,63,0.01,,---,0.01,VWS V14.01,2013-06-29 16:30:00,
2013-06-29 12:35:00,85.2,70.8,29.87,West,263,5.8,10.2,62,0.00,,---,0.01,VWS V14.01,2013-06-29 16:35:00,
2013-06-29 12:40:00,85.7,71.1,29.87,South,187,4.8,11.2,62,0.00,,---,0.01,VWS V14.01,2013-06-29 16:40:00,
2013-06-29 12:45:00,85.8,71.8,29.87,SW,236,3.9,4.5,63,0.00,,---,0.01,VWS V14.01,2013-06-29 16:45:00,
2013-06-29 12:50:00,85.6,70.2,29.87,West,266,8.2,9.7,60,0.00,,---,0.01,VWS V14.01,2013-06-29 16:50:00,
2013-06-29 12:55:00,86.1,71.6,29.86,WSW,242,3.8,5.1,62,0.00,,---,0.01,VWS V14.01,2013-06-29 16:55:00,
2013-06-29 13:00:00,85.7,70.9,29.87,SW,232,9.1,11.6,62,0.00,,---,0.01,VWS V14.01,2013-06-29 17:00:00,
2013-06-29 13:05:00,86.8,71.7,29.86,SW,236,7.5,10.4,61,0.00,,---,0.01,VWS V14.01,2013-06-29 17:05:00,
2013-06-29 13:10:00,87.6,72.2,29.86,WSW,252,8.1,9.4,60,0.00,,---,0.01,VWS V14.01,2013-06-29 17:10:00,
2013-06-29 13:15:00,87.8,72.1,29.86,WSW,240,8.5,14.1,60,0.00,,---,0.01,VWS V14.01,2013-06-29 17:15:00,
2013-06-29 13:20:00,87.9,72.3,29.86,West,270,6.6,11.5,60,0.00,,---,0.01,VWS V14.01,2013-06-29 17:20:00,
2013-06-29 13:25:00,87.5,72.8,29.85,WSW,257,4.4,5.4,62,0.00,,---,0.01,VWS V14.01,2013-06-29 17:25:00,
2013-06-29 13:30:00,87.4,72.2,29.84,West,259,6.6,7.9,61,0.00,,---,0.01,VWS V14.01,2013-06-29 17:30:00,
2013-06-29 13:35:00,86.3,72.2,29.85,SW,231,11.3,15.2,63,0.00,,---,0.01,VWS V14.01,2013-06-29 17:35:00,
2013-06-29 13:40:00,85.0,73.5,29.85,SW,228,8.1,13.8,69,0.00,,---,0.01,VWS V14.01,2013-06-29 17:40:00,
2013-06-29 13:45:00,84.3,70.4,29.85,SW,236,8.7,11.9,63,0.00,,---,0.01,VWS V14.01,2013-06-29 17:45:00,
2013-06-29 13:50:00,84.2,68.2,29.85,SW,235,6.5,11.6,59,0.00,,---,0.01,VWS V14.01,2013-06-29 17:50:00,
2013-06-29 13:55:00,84.8,68.8,29.84,South,170,12.2,13.0,59,0.00,,---,0.01,VWS V14.01,2013-06-29 17:55:00,
2013-06-29 14:00:00,85.6,70.4,29.85,West,271,13.8,14.4,61,0.00,,---,0.01,VWS V14.01,2013-06-29 18:00:00,
2013-06-29 14:05:00,85.6,69.2,29.85,WSW,245,8.3,12.2,58,0.00,,---,0.01,VWS V14.01,2013-06-29 18:05:00,
2013-06-29 14:10:00,86.2,69.9,29.85,SW,231,7.5,14.9,58,0.00,,---,0.01,VWS V14.01,2013-06-29 18:10:00,
2013-06-29 14:15:00,85.3,69.6,29.85,South,179,6.7,10.7,59,0.00,,---,0.01,VWS V14.01,2013-06-29 18:15:00,
2013-06-29 14:20:00,86.5,70.5,29.84,SW,228,8.1,13.0,59,0.00,,---,0.01,VWS V14.01,2013-06-29 18:20:00,
2013-06-29 14:25:00,86.9,70.6,29.84,SW,226,7.2,12.1,58,0.00,,---,0.01,VWS V14.01,2013-06-29 18:25:00,
2013-06-29 14:30:00,87.5,71.4,29.84,SW,233,10.8,13.4,59,0.00,,---,0.01,VWS V14.01,2013-06-29 18:30:00,
2013-06-29 14:35:00,87.4,71.5,29.84,WSW,242,4.8,7.9,59,0.00,,---,0.01,VWS V14.01,2013-06-29 18:35:00,
2013-06-29 14:40:00,86.5,70.8,29.84,SSW,201,10.6,12.1,60,0.00,,---,0.01,VWS V14.01,2013-06-29 18:40:00,
2013-06-29 14:45:00,86.5,69.4,29.84,West,266,11.2,14.0,57,0.00,,---,0.01,VWS V14.01,2013-06-29 18:45:00,
2013-06-29 14:50:00,87.0,69.8,29.84,WSW,246,7.4,14.2,57,0.00,,---,0.01,VWS V14.01,2013-06-29 18:50:00,
2013-06-29 14:55:00,87.9,70.8,29.84,SW,228,7.0,12.0,57,0.00,,---,0.01,VWS V14.01,2013-06-29 18:55:00,
2013-06-29 15:00:00,88.1,70.7,29.84,SSW,198,8.4,11.8,56,0.00,,---,0.01,VWS V14.01,2013-06-29 19:00:00,
2013-06-29 15:05:00,88.6,71.1,29.83,SW,221,7.8,12.8,56,0.00,,---,0.01,VWS V14.01,2013-06-29 19:05:00,
2013-06-29 15:10:00,88.9,72.1,29.83,WSW,250,6.7,8.9,58,0.00,,---,0.01,VWS V14.01,2013-06-29 19:10:00,
2013-06-29 15:15:00,88.5,70.4,29.82,WSW,245,7.3,12.6,55,0.00,,---,0.01,VWS V14.01,2013-06-29 19:15:00,
2013-06-29 15:20:00,87.7,68.1,29.82,SSW,205,7.1,9.4,52,0.00,,---,0.01,VWS V14.01,2013-06-29 19:20:00,
2013-06-29 15:25:00,88.5,68.3,29.82,WSW,242,9.5,11.5,51,0.00,,---,0.01,VWS V14.01,2013-06-29 19:25:00,
2013-06-29 15:30:00,89.1,68.7,29.82,SW,219,10.6,13.7,51,0.00,,---,0.01,VWS V14.01,2013-06-29 19:30:00,
2013-06-29 15:35:00,89.3,69.0,29.82,West,277,4.8,10.4,51,0.00,,---,0.01,VWS V14.01,2013-06-29 19:35:00,
2013-06-29 15:40:00,89.3,69.2,29.82,SW,215,7.6,13.8,52,0.00,,---,0.01,VWS V14.01,2013-06-29 19:40:00,
2013-06-29 15:45:00,89.4,68.6,29.81,SW,235,8.1,11.9,50,0.00,,---,0.01,VWS V14.01,2013-06-29 19:45:00,
2013-06-29 15:50:00,89.4,69.2,29.81,SSW,204,5.5,10.5,52,0.00,,---,0.01,VWS V14.01,2013-06-29 19:50:00,
2013-06-29 15:55:00,89.3,68.8,29.81,SW,225,7.1,11.0,51,0.00,,---,0.01,VWS V14.01,2013-06-29 19:55:00,
2013-06-29 16:00:00,88.8,69.6,29.80,SW,222,3.8,8.0,53,0.00,,---,0.01,VWS V14.01,2013-06-29 20:00:00,
2013-06-29 16:05:00,88.9,69.9,29.81,WSW,239,7.3,14.0,54,0.00,,---,0.01,VWS V14.01,2013-06-29 20:05:00,
2013-06-29 16:10:00,89.1,70.5,29.81,WSW,249,6.3,8.8,54,0.00,,---,0.01,VWS V14.01,2013-06-29 20:10:00,
2013-06-29 16:15:00,89.2,70.3,29.81,SW,222,11.1,11.1,54,0.00,,---,0.01,VWS V14.01,2013-06-29 20:15:00,
2013-06-29 16:20:00,89.5,70.4,29.80,SW,233,5.0,5.3,54,0.00,,---,0.01,VWS V14.01,2013-06-29 20:20:00,
2013-06-29 16:25:00,88.7,69.7,29.80,South,188,5.9,6.7,54,0.00,,---,0.01,VWS V14.01,2013-06-29 20:25:00,
2013-06-29 16:30:00,89.6,71.0,29.80,SW,226,9.4,9.4,54,0.00,,---,0.01,VWS V14.01,2013-06-29 20:30:00,
2013-06-29 16:35:00,89.4,70.9,29.79,WNW,292,4.7,8.0,55,0.00,,---,0.01,VWS V14.01,2013-06-29 20:35:00,
2013-06-29 16:40:00,89.3,71.5,29.80,SSW,207,5.5,7.5,56,0.00,,---,0.01,VWS V14.01,2013-06-29 20:40:00,
2013-06-29 16:45:00,87.4,69.9,29.80,SSW,193,9.1,12.7,56,0.00,,---,0.01,VWS V14.01,2013-06-29 20:45:00,
2013-06-29 16:50:00,88.2,71.2,29.80,SW,217,5.2,6.8,57,0.00,,---,0.01,VWS V14.01,2013-06-29 20:50:00,
2013-06-29 16:55:00,88.7,71.8,29.80,SW,231,5.0,8.9,58,0.00,,---,0.01,VWS V14.01,2013-06-29 20:55:00,
2013-06-29 17:00:00,88.8,72.0,29.80,SW,219,4.5,10.6,58,0.00,,---,0.01,VWS V14.01,2013-06-29 21:00:00,
2013-06-29 17:05:00,88.7,71.3,29.80,South,186,5.0,12.9,56,0.00,,---,0.01,VWS V14.01,2013-06-29 21:05:00,
2013-06-29 17:10:00,88.5,70.9,29.80,SSW,210,10.6,16.8,56,0.00,,---,0.01,VWS V14.01,2013-06-29 21:10:00,
2013-06-29 17:15:00,88.2,71.2,29.80,SW,236,13.4,16.3,57,0.00,,---,0.01,VWS V14.01,2013-06-29 21:15:00,
2013-06-29 17:20:00,87.3,69.3,29.80,SW,214,7.2,9.4,55,0.00,,---,0.01,VWS V14.01,2013-06-29 21:20:00,
2013-06-29 17:25:00,87.4,68.7,29.80,SW,235,6.0,7.6,54,0.00,,---,0.01,VWS V14.01,2013-06-29 21:25:00,
2013-06-29 17:30:00,87.2,67.7,29.81,West,259,7.6,13.5,52,0.00,,---,0.01,VWS V14.01,2013-06-29 21:30:00,
2013-06-29 17:35:00,86.2,67.7,29.80,SW,214,5.3,10.9,54,0.00,,---,0.01,VWS V14.01,2013-06-29 21:35:00,
2013-06-29 17:40:00,85.4,67.6,29.80,WSW,243,6.8,9.2,55,0.00,,---,0.01,VWS V14.01,2013-06-29 21:40:00,
2013-06-29 17:45:00,84.7,66.4,29.81,SW,221,5.5,10.0,54,0.00,,---,0.01,VWS V14.01,2013-06-29 21:45:00,
2013-06-29 17:50:00,84.9,66.5,29.81,SW,229,7.5,11.8,54,0.00,,---,0.01,VWS V14.01,2013-06-29 21:50:00,
2013-06-29 17:55:00,85.3,67.3,29.82,SSW,197,4.3,12.9,55,0.00,,---,0.01,VWS V14.01,2013-06-29 21:55:00,
2013-06-29 18:00:00,85.0,68.1,29.82,SSW,208,9.9,10.4,57,0.00,,---,0.01,VWS V14.01,2013-06-29 22:00:00,
2013-06-29 18:05:00,84.5,68.1,29.81,SW,214,5.2,6.3,58,0.00,,---,0.01,VWS V14.01,2013-06-29 22:05:00,
2013-06-29 18:10:00,84.2,68.2,29.81,SW,233,6.2,7.2,59,0.00,,---,0.01,VWS V14.01,2013-06-29 22:10:00,
2013-06-29 18:15:00,82.9,66.2,29.81,WSW,240,8.4,13.4,57,0.00,,---,0.01,VWS V14.01,2013-06-29 22:15:00,
2013-06-29 18:20:00,82.9,66.6,29.81,SSE,166,11.0,14.1,58,0.00,,---,0.01,VWS V14.01,2013-06-29 22:20:00,
2013-06-29 18:25:00,81.8,65.3,29.81,SW,229,5.7,10.5,58,0.00,,---,0.01,VWS V14.01,2013-06-29 22:25:00,
2013-06-29 18:30:00,82.5,66.2,29.81,SSW,207,9.6,9.6,58,0.00,,---,0.01,VWS V14.01,2013-06-29 22:30:00,
2013-06-29 18:35:00,82.4,66.3,29.81,SSE,160,10.6,11.2,58,0.00,,---,0.01,VWS V14.01,2013-06-29 22:35:00,
2013-06-29 18:40:00,82.6,67.1,29.81,WSW,240,7.1,11.5,60,0.00,,---,0.01,VWS V14.01,2013-06-29 22:40:00,
2013-06-29 18:45:00,82.4,67.3,29.82,SSW,211,4.0,6.8,60,0.00,,---,0.01,VWS V14.01,2013-06-29 22:45:00,
2013-06-29 18:50:00,83.1,68.4,29.82,SSW,200,6.9,8.6,61,0.00,,---,0.01,VWS V14.01,2013-06-29 22:50:00,
2013-06-29 18:55:00,82.5,68.4,29.82,SSW,201,1.8,7.8,62,0.00,,---,0.01,VWS V14.01,2013-06-29 22:55:00,
2013-06-29 19:00:00,83.3,69.1,29.82,WSW,238,7.5,9.7,62,0.00,,---,0.01,VWS V14.01,2013-06-29 23:00:00,
2013-06-29 19:05:00,82.0,68.1,29.82,SSW,207,6.8,10.9,63,0.00,,---,0.01,VWS V14.01,2013-06-29 23:05:00,
2013-06-29 19:10:00,82.4,68.4,29.82,WSW,240,6.9,11.6,63,0.00,,---,0.01,VWS V14.01,2013-06-29 23:10:00,
2013-06-29 19:15:00,82.7,68.8,29.82,SSW,198,6.6,7.5,63,0.00,,---,0.01,VWS V14.01,2013-06-29 23:15:00,
2013-06-29 19:20:00,82.5,68.5,29.82,SW,236,2.2,6.1,63,0.00,,---,0.01,VWS V14.01,2013-06-29 23:20:00,
2013-06-29 19:25:00,82.4,68.5,29.82,WSW,248,3.5,5.2,63,0.00,,---,0.01,VWS V14.01,2013-06-29 23:25:00,
2013-06-29 19:30:00,82.5,68.7,29.82,SSW,211,1.4,7.3,63,0.00,,---,0.01,VWS V14.01,2013-06-29 23:30:00,
2013-06-29 19:35:00,82.6,69.4,29.82,SW,215,5.0,5.3,64,0.00,,---,0.01,VWS V14.01,2013-06-29 23:35:00,
2013-06-29 19:40:00,80.9,68.1,29.82,SSW,205,3.9,7.6,65,0.00,,---,0.01,VWS V14.01,2013-06-29 23:40:00,
2013-06-29 19:45:00,81.4,68.9,29.83,SW,232,4.7,4.7,66,0.00,,---,0.01,VWS V14.01,2013-06-29 23:45:00,
2013-06-29 19:50:00,81.8,69.5,29.83,SW,231,5.8,5.8,66,0.00,,---,0.01,VWS V14.01,2013-06-29 23:50:00,
2013-06-29 19:55:00,81.6,69.7,29.83,SW,218,3.9,5.9,67,0.00,,---,0.01,VWS V14.01,2013-06-29 23:55:00,
2013-06-29 20:00:00,81.1,69.4,29.83,SSW,208,3.0,5.9,68,0.00,,---,0.01,VWS V14.01,2013-06-30 00:00:00,
2013-06-29 20:05:00,80.8,69.6,29.83,South,186,3.7,5.0,69,0.00,,---,0.01,VWS V14.01,2013-06-30 00:05:00,
2013-06-29 20:10:00,81.3,70.4,29.83,South,181,1.4,3.1,70,0.00,,---,0.01,VWS V14.01,2013-06-30 00:10:00,
2013-06-29 20:15:00,81.2,70.7,29.83,SE,138,3.7,5.7,70,0.00,,---,0.01,VWS V14.01,2013-06-30 00:15:00,
2013-06-29 20:20:00,81.1,71.2,29.84,SW,218,1.2,4.6,72,0.00,,---,0.01,VWS V14.01,2013-06-30 00:20:00,
2013-06-29 20:25:00,79.7,70.4,29.84,South,187,10.1,10.1,73,0.00,,---,0.01,VWS V14.01,2013-06-30 00:25:00,
2013-06-29 20:30:00,80.2,71.4,29.84,SW,231,1.5,3.4,75,0.00,,---,0.01,VWS V14.01,2013-06-30 00:30:00,
2013-06-29 20:35:00,80.7,72.2,29.84,South,191,2.5,3.0,75,0.00,,---,0.01,VWS V14.01,2013-06-30 00:35:00,
2013-06-29 20:40:00,80.6,72.3,29.84,SSW,197,4.2,5.7,76,0.00,,---,0.01,VWS V14.01,2013-06-30 00:40:00,
2013-06-29 20:45:00,80.4,72.5,29.84,SSW,200,3.7,6.0,77,0.00,,---,0.01,VWS V14.01,2013-06-30 00:45:00,
2013-06-29 20:50:00,79.1,71.4,29.84,WSW,253,2.0,6.0,77,0.00,,---,0.01,VWS V14.01,2013-06-30 00:50:00,
2013-06-29 20:55:00,79.1,71.7,29.84,SSE,162,6.6,7.5,78,0.00,,---,0.01,VWS V14.01,2013-06-30 00:55:00,
2013-06-29 21:00:00,80.1,72.8,29.84,South,176,3.0,4.3,78,0.00,,---,0.01,VWS V14.01,2013-06-30 01:00:00,
2013-06-29 21:05:00,79.7,72.5,29.85,SSE,156,3.6,9.8,79,0.00,,---,0.01,VWS V14.01,2013-06-30 01:05:00,
2013-06-29 21:10:00,79.0,72.0,29.85,SSW,193,6.5,8.5,79,0.00,,---,0.01,VWS V14.01,2013-06-30 01:10:00,
2013-06-29 21:15:00,79.8,72.9,29.84,SE,135,3.0,5.3,79,0.00,,---,0.01,VWS V14.01,2013-06-30 01:15:00,
2013-06-29 21:20:00,79.4,72.6,29.84,South,187,3.2,5.7,80,0.00,,---,0.01,VWS V14.01,2013-06-30 01:20:00,
2013-06-29 21:25:00,78.3,71.7,29.85,South,180,1.4,3.6,80,0.00,,---,0.01,VWS V14.01,2013-06-30 01:25:00,
2013-06-29 21:30:00,79.2,72.8,29.85,South,169,6.5,8.0,81,0.00,,---,0.01,VWS V14.01,2013-06-30 01:30:00,
2013-06-29 21:35:00,79.3,73.0,29.85,South,190,3.9,8.0,81,0.00,,---,0.01,VWS V14.01,2013-06-30 01:35:00,
2013-06-29 21:40:00,79.0,72.8,29.85,SSW,197,6.6,6.6,81,0.00,,---,0.01,VWS V14.01,2013-06-30 01:40:00,
2013-06-29 21:45:00,78.7,72.6,29.85,South,180,4.5,5.2,82,0.00,,---,0.01,VWS V14.01,2013-06-30 01:45:00,
2013-06-29 21:50:00,78.2,72.3,29.85,SSE,156,3.1,5.0,82,0.00,,---,0.01,VWS V14.01,2013-06-30 01:50:00,
2013-06-29 21:55:00,78.9,73.1,29.84,SW,217,4.6,6.4,82,0.00,,---,0.01,VWS V14.01,2013-06-30 01:55:00,
2013-06-29 22:00:00,79.1,73.3,29.85,South,179,4.7,8.3,82,0.00,,---,0.01,VWS V14.01,2013-06-30 02:00:00,
2013-06-29 22:05:00,78.3,72.6,29.85,SSE,159,2.5,9.4,83,0.00,,---,0.01,VWS V14.01,2013-06-30 02:05:00,
2013-06-29 22:10:00,79.0,73.4,29.85,SE,135,1.0,7.0,83,0.00,,---,0.01,VWS V14.01,2013-06-30 02:10:00,
2013-06-29 22:15:00,78.9,73.4,29.85,SE,134,3.4,5.5,83,0.00,,---,0.01,VWS V14.01,2013-06-30 02:15:00,
2013-06-29 22:20:00,78.5,73.1,29.85,SSE,162,0.7,4.7,84,0.00,,---,0.01,VWS V14.01,2013-06-30 02:20:00,
2013-06-29 22:25:00,78.9,73.5,29.86,South,179,9.6,10.6,84,0.00,,---,0.01,VWS V14.01,2013-06-30 02:25:00,
2013-06-29 22:30:00,78.8,73.5,29.86,South,186,8.6,9.7,84,0.00,,---,0.01,VWS V14.01,2013-06-30 02:30:00,
2013-06-29 22:35:00,78.9,73.8,29.86,SSW,195,3.5,5.5,84,0.00,,---,0.01,VWS V14.01,2013-06-30 02:35:00,
2013-06-29 22:40:00,78.5,73.6,29.86,South,174,1.2,3.9,85,0.00,,---,0.01,VWS V14.01,2013-06-30 02:40:00,
2013-06-29 22:45:00,77.4,72.7,29.86,South,188,6.8,10.7,85,0.00,,---,0.01,VWS V14.01,2013-06-30 02:45:00,
2013-06-29 22:50:00,78.8,74.2,29.86,SW,233,1.7,2.6,86,0.00,,---,0.01,VWS V14.01,2013-06-30 02:50:00,
2013-06-29 22:55:00,77.9,73.3,29.86,SSW,212,5.3,6.7,86,0.00,,---,0.01,VWS V14.01,2013-06-30 02:55:00,
2013-06-29 23:00:00,78.5,74.0,29.86,SSW,194,2.4,6.6,86,0.00,,---,0.01,VWS V14.01,2013-06-30 03:00:00,
2013-06-29 23:05:00,77.1,72.7,29.86,South,186,5.5,7.5,86,0.00,,---,0.01,VWS V14.01,2013-06-30 03:05:00,
2013-06-29 23:10:00,78.3,73.8,29.86,SSW,212,4.0,5.7,86,0.00,,---,0.01,VWS V14.01,2013-06-30 03:10:00,
2013-06-29 23:15:00,77.8,73.3,29.86,South,184,6.3,10.0,86,0.00,,---,0.01,VWS V14.01,2013-06-30 03:15:00,
2013-06-29 23:20:00,77.9,73.4,29.86,South,183,1.7,8.2,86,0.00,,---,0.01,VWS V14.01,2013-06-30 03:20:00,
2013-06-29 23:25:00,78.3,73.9,29.86,SSE,163,3.9,7.1,86,0.00,,---,0.01,VWS V14.01,2013-06-30 03:25:00,
2013-06-29 23:30:00,78.4,74.0,29.86,SE,145,1.0,3.7,86,0.00,,---,0.01,VWS V14.01,2013-06-30 03:30:00,
2013-06-29 23:35:00,78.4,74.0,29.86,South,188,5.9,8.2,86,0.00,,---,0.01,VWS V14.01,2013-06-30 03:35:00,
2013-06-29 23:40:00,77.4,73.0,29.86,South,176,2.5,7.1,86,0.00,,---,0.01,VWS V14.01,2013-06-30 03:40:00,
2013-06-29 23:45:00,77.8,73.4,29.85,South,184,4.5,9.4,86,0.00,,---,0.01,VWS V14.01,2013-06-30 03:45:00,
2013-06-29 23:50:00,78.3,73.9,29.85,SSW,207,6.2,10.8,86,0.00,,---,0.01,VWS V14.01,2013-06-30 03:50:00,
2013-06-29 23:55:00,78.3,74.0,29.86,SSW,208,7.6,9.9,87,0.00,,---,0.01,VWS V14.01,2013-06-30 03:55:00,